sensor_id;sensor_type;location;lat;lon;timestamp;P1;durP1;ratioP1;P2;durP2;ratioP2
40939;SDS011;26666;50.156;7.700;2023-02-23T00:00:13;8.88;;;4.13;;
40939;SDS011;26666;50.156;7.700;2023-02-23T00:05:15;16.17;;;6.10;;
40939;SDS011;26666;50.156;7.700;2023-02-23T00:10:17;9.55;;;5.07;;
40939;SDS011;26666;50.156;7.700;2023-02-23T00:15:19;15.60;;;5.50;;
40939;SDS011;26666;50.156;7.700;2023-02-23T00:20:21;16.05;;;6.53;;
40939;SDS011;26666;50.156;7.700;2023-02-23T00:25:24;13.82;;;5.93;;
40939;SDS011;26666;50.156;7.700;2023-02-23T00:30:26;19.60;;;5.85;;
40939;SDS011;26666;50.156;7.700;2023-02-23T00:35:27;13.50;;;5.20;;
40939;SDS011;26666;50.156;7.700;2023-02-23T00:40:29;11.98;;;5.80;;
40939;SDS011;26666;50.156;7.700;2023-02-23T00:45:30;13.00;;;5.55;;
40939;SDS011;26666;50.156;7.700;2023-02-23T00:50:32;7.88;;;4.40;;
40939;SDS011;26666;50.156;7.700;2023-02-23T00:55:33;8.32;;;5.05;;
40939;SDS011;26666;50.156;7.700;2023-02-23T01:00:35;12.50;;;6.50;;
40939;SDS011;26666;50.156;7.700;2023-02-23T01:05:36;14.65;;;5.68;;
40939;SDS011;26666;50.156;7.700;2023-02-23T01:10:39;14.98;;;6.15;;
40939;SDS011;26666;50.156;7.700;2023-02-23T01:15:41;15.50;;;5.97;;
40939;SDS011;26666;50.156;7.700;2023-02-23T01:20:45;12.00;;;4.72;;
40939;SDS011;26666;50.156;7.700;2023-02-23T01:25:47;12.23;;;5.68;;
40939;SDS011;26666;50.156;7.700;2023-02-23T01:30:49;14.65;;;6.18;;
40939;SDS011;26666;50.156;7.700;2023-02-23T01:35:57;11.60;;;5.20;;
40939;SDS011;26666;50.156;7.700;2023-02-23T01:40:59;10.23;;;5.22;;
40939;SDS011;26666;50.156;7.700;2023-02-23T01:46:01;16.38;;;6.38;;
40939;SDS011;26666;50.156;7.700;2023-02-23T01:51:07;14.65;;;4.55;;
40939;SDS011;26666;50.156;7.700;2023-02-23T01:56:15;12.85;;;5.85;;
40939;SDS011;26666;50.156;7.700;2023-02-23T02:01:21;13.80;;;6.15;;
40939;SDS011;26666;50.156;7.700;2023-02-23T02:06:23;10.52;;;4.90;;
40939;SDS011;26666;50.156;7.700;2023-02-23T02:11:26;11.88;;;5.07;;
40939;SDS011;26666;50.156;7.700;2023-02-23T02:16:32;13.60;;;5.90;;
40939;SDS011;26666;50.156;7.700;2023-02-23T02:21:43;10.23;;;5.35;;
40939;SDS011;26666;50.156;7.700;2023-02-23T02:27:21;13.25;;;4.80;;
40939;SDS011;26666;50.156;7.700;2023-02-23T02:32:39;13.48;;;5.20;;
40939;SDS011;26666;50.156;7.700;2023-02-23T02:43:06;16.75;;;5.43;;
40939;SDS011;26666;50.156;7.700;2023-02-23T02:48:43;13.02;;;6.00;;
40939;SDS011;26666;50.156;7.700;2023-02-23T02:59:11;9.90;;;5.35;;
40939;SDS011;26666;50.156;7.700;2023-02-23T03:04:19;17.88;;;6.10;;
40939;SDS011;26666;50.156;7.700;2023-02-23T03:24:59;12.25;;;4.88;;
40939;SDS011;26666;50.156;7.700;2023-02-23T03:35:20;17.85;;;6.60;;
40939;SDS011;26666;50.156;7.700;2023-02-23T03:40:34;10.95;;;5.03;;
40939;SDS011;26666;50.156;7.700;2023-02-23T03:45:39;11.98;;;5.07;;
40939;SDS011;26666;50.156;7.700;2023-02-23T03:50:46;12.93;;;5.13;;
40939;SDS011;26666;50.156;7.700;2023-02-23T03:55:53;13.40;;;5.88;;
40939;SDS011;26666;50.156;7.700;2023-02-23T04:00:58;14.32;;;6.40;;
40939;SDS011;26666;50.156;7.700;2023-02-23T04:06:03;12.68;;;5.10;;
40939;SDS011;26666;50.156;7.700;2023-02-23T04:16:31;9.10;;;4.40;;
40939;SDS011;26666;50.156;7.700;2023-02-23T04:21:33;14.95;;;5.30;;
40939;SDS011;26666;50.156;7.700;2023-02-23T04:26:35;13.35;;;5.95;;
40939;SDS011;26666;50.156;7.700;2023-02-23T04:31:37;15.98;;;7.18;;
40939;SDS011;26666;50.156;7.700;2023-02-23T04:36:38;19.17;;;7.07;;
40939;SDS011;26666;50.156;7.700;2023-02-23T04:41:40;18.27;;;7.70;;
40939;SDS011;26666;50.156;7.700;2023-02-23T04:46:42;19.15;;;6.88;;
40939;SDS011;26666;50.156;7.700;2023-02-23T04:51:43;18.20;;;6.95;;
40939;SDS011;26666;50.156;7.700;2023-02-23T04:56:45;13.70;;;6.80;;
40939;SDS011;26666;50.156;7.700;2023-02-23T05:01:47;13.63;;;6.40;;
40939;SDS011;26666;50.156;7.700;2023-02-23T05:06:48;15.07;;;6.22;;
40939;SDS011;26666;50.156;7.700;2023-02-23T05:11:50;16.00;;;6.80;;
40939;SDS011;26666;50.156;7.700;2023-02-23T05:16:52;13.02;;;5.40;;
40939;SDS011;26666;50.156;7.700;2023-02-23T05:21:55;17.67;;;6.15;;
40939;SDS011;26666;50.156;7.700;2023-02-23T05:26:56;14.13;;;6.15;;
40939;SDS011;26666;50.156;7.700;2023-02-23T05:31:58;14.77;;;6.18;;
40939;SDS011;26666;50.156;7.700;2023-02-23T05:37:00;14.00;;;5.45;;
40939;SDS011;26666;50.156;7.700;2023-02-23T05:42:01;15.18;;;6.15;;
40939;SDS011;26666;50.156;7.700;2023-02-23T05:47:03;12.82;;;5.20;;
40939;SDS011;26666;50.156;7.700;2023-02-23T05:52:05;15.25;;;5.47;;
40939;SDS011;26666;50.156;7.700;2023-02-23T05:57:06;13.05;;;5.50;;
40939;SDS011;26666;50.156;7.700;2023-02-23T06:02:07;14.90;;;5.53;;
40939;SDS011;26666;50.156;7.700;2023-02-23T06:07:09;11.20;;;4.80;;
40939;SDS011;26666;50.156;7.700;2023-02-23T06:12:11;12.82;;;5.05;;
40939;SDS011;26666;50.156;7.700;2023-02-23T06:17:12;9.43;;;4.93;;
40939;SDS011;26666;50.156;7.700;2023-02-23T06:22:16;12.45;;;5.30;;
40939;SDS011;26666;50.156;7.700;2023-02-23T06:27:17;14.05;;;5.53;;
40939;SDS011;26666;50.156;7.700;2023-02-23T06:32:19;16.05;;;6.20;;
40939;SDS011;26666;50.156;7.700;2023-02-23T06:37:21;16.02;;;5.60;;
40939;SDS011;26666;50.156;7.700;2023-02-23T06:42:22;14.65;;;6.47;;
40939;SDS011;26666;50.156;7.700;2023-02-23T06:47:24;15.25;;;5.75;;
40939;SDS011;26666;50.156;7.700;2023-02-23T06:52:26;13.20;;;5.07;;
40939;SDS011;26666;50.156;7.700;2023-02-23T06:57:27;14.10;;;5.25;;
40939;SDS011;26666;50.156;7.700;2023-02-23T07:02:29;13.35;;;5.78;;
40939;SDS011;26666;50.156;7.700;2023-02-23T07:07:30;17.67;;;5.72;;
40939;SDS011;26666;50.156;7.700;2023-02-23T07:12:32;20.98;;;6.82;;
40939;SDS011;26666;50.156;7.700;2023-02-23T07:17:34;18.75;;;6.72;;
40939;SDS011;26666;50.156;7.700;2023-02-23T07:22:38;13.50;;;4.95;;
40939;SDS011;26666;50.156;7.700;2023-02-23T07:27:40;15.30;;;6.55;;
40939;SDS011;26666;50.156;7.700;2023-02-23T07:32:41;17.05;;;7.03;;
40939;SDS011;26666;50.156;7.700;2023-02-23T07:37:43;16.52;;;6.47;;
40939;SDS011;26666;50.156;7.700;2023-02-23T07:42:45;19.05;;;6.93;;
40939;SDS011;26666;50.156;7.700;2023-02-23T07:47:46;15.85;;;7.10;;
40939;SDS011;26666;50.156;7.700;2023-02-23T07:52:49;16.83;;;7.18;;
40939;SDS011;26666;50.156;7.700;2023-02-23T07:57:50;16.75;;;6.10;;
40939;SDS011;26666;50.156;7.700;2023-02-23T08:02:52;14.63;;;6.22;;
40939;SDS011;26666;50.156;7.700;2023-02-23T08:07:54;16.67;;;7.68;;
40939;SDS011;26666;50.156;7.700;2023-02-23T08:13:00;14.25;;;6.45;;
40939;SDS011;26666;50.156;7.700;2023-02-23T08:18:02;19.92;;;7.32;;
40939;SDS011;26666;50.156;7.700;2023-02-23T08:23:06;16.45;;;6.95;;
40939;SDS011;26666;50.156;7.700;2023-02-23T08:28:07;19.15;;;8.02;;
40939;SDS011;26666;50.156;7.700;2023-02-23T08:33:09;19.98;;;7.30;;
40939;SDS011;26666;50.156;7.700;2023-02-23T08:38:11;25.50;;;8.23;;
40939;SDS011;26666;50.156;7.700;2023-02-23T08:43:12;18.70;;;7.72;;
40939;SDS011;26666;50.156;7.700;2023-02-23T08:48:14;18.85;;;8.10;;
40939;SDS011;26666;50.156;7.700;2023-02-23T08:53:16;17.10;;;7.68;;
40939;SDS011;26666;50.156;7.700;2023-02-23T08:58:17;23.85;;;8.85;;
40939;SDS011;26666;50.156;7.700;2023-02-23T09:03:19;16.30;;;6.82;;
40939;SDS011;26666;50.156;7.700;2023-02-23T09:08:21;17.02;;;6.78;;
40939;SDS011;26666;50.156;7.700;2023-02-23T09:13:23;21.05;;;8.45;;
40939;SDS011;26666;50.156;7.700;2023-02-23T09:18:28;20.20;;;8.43;;
40939;SDS011;26666;50.156;7.700;2023-02-23T09:23:30;24.58;;;9.00;;
40939;SDS011;26666;50.156;7.700;2023-02-23T09:28:31;21.38;;;9.15;;
40939;SDS011;26666;50.156;7.700;2023-02-23T09:33:33;22.40;;;8.60;;
40939;SDS011;26666;50.156;7.700;2023-02-23T09:38:35;28.35;;;9.02;;
40939;SDS011;26666;50.156;7.700;2023-02-23T09:49:10;21.35;;;9.43;;
40939;SDS011;26666;50.156;7.700;2023-02-23T09:54:15;21.05;;;9.20;;
40939;SDS011;26666;50.156;7.700;2023-02-23T09:59:19;20.98;;;8.50;;
40939;SDS011;26666;50.156;7.700;2023-02-23T10:04:23;21.23;;;8.57;;
40939;SDS011;26666;50.156;7.700;2023-02-23T10:26:03;23.83;;;8.75;;
40939;SDS011;26666;50.156;7.700;2023-02-23T10:31:16;25.42;;;9.32;;
40939;SDS011;26666;50.156;7.700;2023-02-23T10:36:30;19.33;;;9.00;;
40939;SDS011;26666;50.156;7.700;2023-02-23T10:41:39;22.25;;;9.90;;
40939;SDS011;26666;50.156;7.700;2023-02-23T10:46:42;18.20;;;9.23;;
40939;SDS011;26666;50.156;7.700;2023-02-23T10:51:46;21.67;;;8.38;;
40939;SDS011;26666;50.156;7.700;2023-02-23T10:56:47;19.15;;;7.75;;
40939;SDS011;26666;50.156;7.700;2023-02-23T11:01:49;19.42;;;7.82;;
40939;SDS011;26666;50.156;7.700;2023-02-23T11:12:18;21.35;;;8.95;;
40939;SDS011;26666;50.156;7.700;2023-02-23T11:17:30;22.40;;;8.73;;
40939;SDS011;26666;50.156;7.700;2023-02-23T11:22:35;23.90;;;9.82;;
40939;SDS011;26666;50.156;7.700;2023-02-23T11:27:44;19.00;;;8.35;;
40939;SDS011;26666;50.156;7.700;2023-02-23T11:32:52;19.92;;;8.27;;
40939;SDS011;26666;50.156;7.700;2023-02-23T11:37:59;19.17;;;8.55;;
40939;SDS011;26666;50.156;7.700;2023-02-23T11:43:16;22.30;;;9.70;;
40939;SDS011;26666;50.156;7.700;2023-02-23T11:53:34;20.48;;;8.95;;
40939;SDS011;26666;50.156;7.700;2023-02-23T11:58:42;22.80;;;10.03;;
40939;SDS011;26666;50.156;7.700;2023-02-23T12:03:54;20.83;;;8.90;;
40939;SDS011;26666;50.156;7.700;2023-02-23T12:08:59;25.27;;;9.63;;
40939;SDS011;26666;50.156;7.700;2023-02-23T12:14:21;24.25;;;9.90;;
40939;SDS011;26666;50.156;7.700;2023-02-23T12:19:35;19.02;;;8.65;;
40939;SDS011;26666;50.156;7.700;2023-02-23T12:24:46;22.65;;;8.90;;
40939;SDS011;26666;50.156;7.700;2023-02-23T12:30:07;26.45;;;9.30;;
40939;SDS011;26666;50.156;7.700;2023-02-23T12:35:14;22.15;;;9.07;;
40939;SDS011;26666;50.156;7.700;2023-02-23T12:40:23;16.23;;;8.50;;
40939;SDS011;26666;50.156;7.700;2023-02-23T12:45:31;14.88;;;7.68;;
40939;SDS011;26666;50.156;7.700;2023-02-23T12:50:38;19.30;;;8.75;;
40939;SDS011;26666;50.156;7.700;2023-02-23T13:06:32;17.15;;;7.00;;
40939;SDS011;26666;50.156;7.700;2023-02-23T13:12:05;16.48;;;8.15;;
40939;SDS011;26666;50.156;7.700;2023-02-23T13:22:43;11.60;;;5.13;;
40939;SDS011;26666;50.156;7.700;2023-02-23T13:27:51;14.15;;;5.60;;
40939;SDS011;26666;50.156;7.700;2023-02-23T13:32:59;16.45;;;6.20;;
40939;SDS011;26666;50.156;7.700;2023-02-23T13:38:25;13.60;;;5.97;;
40939;SDS011;26666;50.156;7.700;2023-02-23T13:43:32;19.80;;;8.05;;
40939;SDS011;26666;50.156;7.700;2023-02-23T13:54:00;13.70;;;5.90;;
40939;SDS011;26666;50.156;7.700;2023-02-23T13:59:16;11.80;;;5.30;;
40939;SDS011;26666;50.156;7.700;2023-02-23T14:04:23;18.45;;;6.03;;
40939;SDS011;26666;50.156;7.700;2023-02-23T14:09:39;15.52;;;6.68;;
40939;SDS011;26666;50.156;7.700;2023-02-23T14:14:47;11.00;;;5.55;;
40939;SDS011;26666;50.156;7.700;2023-02-23T14:30:45;15.20;;;6.13;;
40939;SDS011;26666;50.156;7.700;2023-02-23T14:35:48;23.52;;;6.72;;
40939;SDS011;26666;50.156;7.700;2023-02-23T14:40:50;16.38;;;6.18;;
40939;SDS011;26666;50.156;7.700;2023-02-23T14:45:54;11.10;;;5.22;;
40939;SDS011;26666;50.156;7.700;2023-02-23T14:51:12;14.38;;;6.47;;
40939;SDS011;26666;50.156;7.700;2023-02-23T14:56:35;15.73;;;6.18;;
40939;SDS011;26666;50.156;7.700;2023-02-23T15:01:47;12.68;;;5.65;;
40939;SDS011;26666;50.156;7.700;2023-02-23T15:06:56;18.95;;;5.50;;
40939;SDS011;26666;50.156;7.700;2023-02-23T15:12:03;14.50;;;7.07;;
40939;SDS011;26666;50.156;7.700;2023-02-23T15:17:13;17.92;;;6.75;;
40939;SDS011;26666;50.156;7.700;2023-02-23T15:22:23;17.25;;;6.32;;
40939;SDS011;26666;50.156;7.700;2023-02-23T15:27:29;15.30;;;5.80;;
40939;SDS011;26666;50.156;7.700;2023-02-23T15:32:41;14.88;;;6.32;;
40939;SDS011;26666;50.156;7.700;2023-02-23T15:37:46;15.40;;;4.60;;
40939;SDS011;26666;50.156;7.700;2023-02-23T15:43:06;14.52;;;5.65;;
40939;SDS011;26666;50.156;7.700;2023-02-23T15:48:12;10.77;;;4.40;;
40939;SDS011;26666;50.156;7.700;2023-02-23T15:58:40;10.88;;;4.82;;
40939;SDS011;26666;50.156;7.700;2023-02-23T16:04:01;13.35;;;4.18;;
40939;SDS011;26666;50.156;7.700;2023-02-23T16:09:12;9.38;;;4.60;;
40939;SDS011;26666;50.156;7.700;2023-02-23T16:14:16;11.68;;;4.05;;
40939;SDS011;26666;50.156;7.700;2023-02-23T16:19:19;11.48;;;4.78;;
40939;SDS011;26666;50.156;7.700;2023-02-23T16:24:24;11.85;;;4.45;;
40939;SDS011;26666;50.156;7.700;2023-02-23T16:29:32;18.30;;;5.05;;
40939;SDS011;26666;50.156;7.700;2023-02-23T16:34:47;10.40;;;4.75;;
40939;SDS011;26666;50.156;7.700;2023-02-23T16:39:50;11.52;;;4.60;;
40939;SDS011;26666;50.156;7.700;2023-02-23T16:44:52;16.98;;;5.28;;
40939;SDS011;26666;50.156;7.700;2023-02-23T16:49:54;10.50;;;4.82;;
40939;SDS011;26666;50.156;7.700;2023-02-23T16:54:56;13.13;;;4.18;;
40939;SDS011;26666;50.156;7.700;2023-02-23T16:59:57;13.60;;;5.35;;
40939;SDS011;26666;50.156;7.700;2023-02-23T17:04:59;17.70;;;7.05;;
40939;SDS011;26666;50.156;7.700;2023-02-23T17:10:01;16.85;;;7.53;;
40939;SDS011;26666;50.156;7.700;2023-02-23T17:15:02;18.42;;;6.38;;
40939;SDS011;26666;50.156;7.700;2023-02-23T17:20:04;10.90;;;5.20;;
40939;SDS011;26666;50.156;7.700;2023-02-23T17:25:06;13.00;;;4.57;;
40939;SDS011;26666;50.156;7.700;2023-02-23T17:30:09;8.95;;;4.70;;
40939;SDS011;26666;50.156;7.700;2023-02-23T17:35:11;13.65;;;4.43;;
40939;SDS011;26666;50.156;7.700;2023-02-23T17:40:15;15.88;;;5.15;;
40939;SDS011;26666;50.156;7.700;2023-02-23T17:45:19;14.85;;;5.18;;
40939;SDS011;26666;50.156;7.700;2023-02-23T17:50:21;16.13;;;5.47;;
40939;SDS011;26666;50.156;7.700;2023-02-23T17:55:23;19.58;;;6.25;;
40939;SDS011;26666;50.156;7.700;2023-02-23T18:00:25;20.25;;;6.95;;
40939;SDS011;26666;50.156;7.700;2023-02-23T18:05:26;29.55;;;8.98;;
40939;SDS011;26666;50.156;7.700;2023-02-23T18:10:28;27.38;;;8.38;;
40939;SDS011;26666;50.156;7.700;2023-02-23T18:15:30;26.17;;;9.00;;
40939;SDS011;26666;50.156;7.700;2023-02-23T18:20:32;25.00;;;8.65;;
40939;SDS011;26666;50.156;7.700;2023-02-23T18:25:34;26.48;;;10.50;;
40939;SDS011;26666;50.156;7.700;2023-02-23T18:30:36;28.95;;;9.20;;
40939;SDS011;26666;50.156;7.700;2023-02-23T18:35:41;32.20;;;11.45;;
40939;SDS011;26666;50.156;7.700;2023-02-23T18:40:44;28.70;;;11.02;;
40939;SDS011;26666;50.156;7.700;2023-02-23T18:45:45;27.08;;;10.95;;
40939;SDS011;26666;50.156;7.700;2023-02-23T18:50:47;36.83;;;11.48;;
40939;SDS011;26666;50.156;7.700;2023-02-23T18:55:48;37.88;;;11.57;;
40939;SDS011;26666;50.156;7.700;2023-02-23T19:00:49;36.92;;;11.48;;
40939;SDS011;26666;50.156;7.700;2023-02-23T19:05:51;37.53;;;12.07;;
40939;SDS011;26666;50.156;7.700;2023-02-23T19:10:53;35.50;;;10.65;;
40939;SDS011;26666;50.156;7.700;2023-02-23T19:15:54;30.73;;;9.20;;
40939;SDS011;26666;50.156;7.700;2023-02-23T19:20:56;32.25;;;10.15;;
40939;SDS011;26666;50.156;7.700;2023-02-23T19:25:57;25.58;;;8.85;;
40939;SDS011;26666;50.156;7.700;2023-02-23T19:31:00;32.95;;;10.80;;
40939;SDS011;26666;50.156;7.700;2023-02-23T19:36:07;32.80;;;10.52;;
40939;SDS011;26666;50.156;7.700;2023-02-23T19:41:13;36.45;;;10.02;;
40939;SDS011;26666;50.156;7.700;2023-02-23T19:46:16;32.97;;;10.25;;
40939;SDS011;26666;50.156;7.700;2023-02-23T19:51:18;33.67;;;9.93;;
40939;SDS011;26666;50.156;7.700;2023-02-23T19:56:20;33.83;;;10.02;;
40939;SDS011;26666;50.156;7.700;2023-02-23T20:01:23;34.15;;;11.15;;
40939;SDS011;26666;50.156;7.700;2023-02-23T20:06:27;24.90;;;8.57;;
40939;SDS011;26666;50.156;7.700;2023-02-23T20:11:30;28.55;;;9.48;;
40939;SDS011;26666;50.156;7.700;2023-02-23T20:16:33;33.35;;;10.32;;
40939;SDS011;26666;50.156;7.700;2023-02-23T20:21:35;28.13;;;8.75;;
40939;SDS011;26666;50.156;7.700;2023-02-23T20:26:37;31.27;;;8.77;;
40939;SDS011;26666;50.156;7.700;2023-02-23T20:31:39;29.20;;;8.70;;
40939;SDS011;26666;50.156;7.700;2023-02-23T20:36:44;36.35;;;10.15;;
40939;SDS011;26666;50.156;7.700;2023-02-23T20:41:46;25.02;;;8.70;;
40939;SDS011;26666;50.156;7.700;2023-02-23T20:46:47;27.77;;;9.57;;
40939;SDS011;26666;50.156;7.700;2023-02-23T20:51:49;30.70;;;9.55;;
40939;SDS011;26666;50.156;7.700;2023-02-23T20:56:51;25.67;;;8.73;;
40939;SDS011;26666;50.156;7.700;2023-02-23T21:01:53;32.42;;;8.73;;
40939;SDS011;26666;50.156;7.700;2023-02-23T21:06:55;30.80;;;9.40;;
40939;SDS011;26666;50.156;7.700;2023-02-23T21:11:57;29.67;;;9.65;;
40939;SDS011;26666;50.156;7.700;2023-02-23T21:16:59;29.50;;;7.90;;
40939;SDS011;26666;50.156;7.700;2023-02-23T21:22:00;25.33;;;8.48;;
40939;SDS011;26666;50.156;7.700;2023-02-23T21:27:03;29.08;;;8.02;;
40939;SDS011;26666;50.156;7.700;2023-02-23T21:32:05;24.27;;;7.93;;
40939;SDS011;26666;50.156;7.700;2023-02-23T21:37:08;22.65;;;6.43;;
40939;SDS011;26666;50.156;7.700;2023-02-23T21:42:09;24.95;;;6.10;;
40939;SDS011;26666;50.156;7.700;2023-02-23T21:47:11;19.35;;;5.53;;
40939;SDS011;26666;50.156;7.700;2023-02-23T21:52:14;19.70;;;5.57;;
40939;SDS011;26666;50.156;7.700;2023-02-23T21:57:17;18.83;;;4.95;;
40939;SDS011;26666;50.156;7.700;2023-02-23T22:02:19;16.38;;;6.10;;
40939;SDS011;26666;50.156;7.700;2023-02-23T22:07:20;15.88;;;5.50;;
40939;SDS011;26666;50.156;7.700;2023-02-23T22:12:22;20.88;;;4.80;;
40939;SDS011;26666;50.156;7.700;2023-02-23T22:17:24;15.57;;;5.15;;
40939;SDS011;26666;50.156;7.700;2023-02-23T22:22:25;18.70;;;6.50;;
40939;SDS011;26666;50.156;7.700;2023-02-23T22:27:27;17.45;;;5.25;;
40939;SDS011;26666;50.156;7.700;2023-02-23T22:32:29;20.52;;;5.95;;
40939;SDS011;26666;50.156;7.700;2023-02-23T22:37:30;16.42;;;5.65;;
40939;SDS011;26666;50.156;7.700;2023-02-23T22:42:32;19.88;;;7.00;;
40939;SDS011;26666;50.156;7.700;2023-02-23T22:47:34;18.70;;;6.22;;
40939;SDS011;26666;50.156;7.700;2023-02-23T22:52:36;20.42;;;7.05;;
40939;SDS011;26666;50.156;7.700;2023-02-23T22:57:38;23.60;;;6.45;;
40939;SDS011;26666;50.156;7.700;2023-02-23T23:02:39;27.42;;;8.23;;
40939;SDS011;26666;50.156;7.700;2023-02-23T23:07:41;24.77;;;7.35;;
40939;SDS011;26666;50.156;7.700;2023-02-23T23:12:43;21.45;;;5.25;;
40939;SDS011;26666;50.156;7.700;2023-02-23T23:17:45;26.88;;;7.40;;
40939;SDS011;26666;50.156;7.700;2023-02-23T23:22:46;26.38;;;8.75;;
40939;SDS011;26666;50.156;7.700;2023-02-23T23:27:49;28.83;;;8.23;;
40939;SDS011;26666;50.156;7.700;2023-02-23T23:32:51;21.02;;;7.35;;
40939;SDS011;26666;50.156;7.700;2023-02-23T23:37:52;25.35;;;7.93;;
40939;SDS011;26666;50.156;7.700;2023-02-23T23:42:54;28.08;;;7.53;;
40939;SDS011;26666;50.156;7.700;2023-02-23T23:47:57;30.02;;;8.77;;
40939;SDS011;26666;50.156;7.700;2023-02-23T23:52:58;31.60;;;8.27;;
40939;SDS011;26666;50.156;7.700;2023-02-23T23:58:00;25.50;;;8.23;;
